sensor_id;sensor_type;location;lat;lon;timestamp;temperature;humidity
11818;DHT22;5966;52.402;5.322;2022-10-31T00:01:11;13.30;99.90
11818;DHT22;5966;52.402;5.322;2022-10-31T00:03:39;13.20;99.90
11818;DHT22;5966;52.402;5.322;2022-10-31T00:06:07;13.20;99.90
11818;DHT22;5966;52.402;5.322;2022-10-31T00:11:28;13.20;99.90
11818;DHT22;5966;52.402;5.322;2022-10-31T00:13:57;13.20;99.90
11818;DHT22;5966;52.402;5.322;2022-10-31T00:16:25;13.10;99.90
11818;DHT22;5966;52.402;5.322;2022-10-31T00:18:55;13.20;99.90
11818;DHT22;5966;52.402;5.322;2022-10-31T00:21:24;13.20;99.90
11818;DHT22;5966;52.402;5.322;2022-10-31T00:23:52;13.20;99.90
11818;DHT22;5966;52.402;5.322;2022-10-31T00:26:20;13.20;99.90
11818;DHT22;5966;52.402;5.322;2022-10-31T00:28:50;13.30;99.90
11818;DHT22;5966;52.402;5.322;2022-10-31T00:31:18;13.30;99.90
11818;DHT22;5966;52.402;5.322;2022-10-31T00:33:46;13.30;99.90
11818;DHT22;5966;52.402;5.322;2022-10-31T00:36:18;13.30;99.90
11818;DHT22;5966;52.402;5.322;2022-10-31T00:38:54;13.40;99.90
11818;DHT22;5966;52.402;5.322;2022-10-31T00:41:22;13.30;99.90
11818;DHT22;5966;52.402;5.322;2022-10-31T00:43:52;13.30;99.90
11818;DHT22;5966;52.402;5.322;2022-10-31T00:46:19;13.30;99.90
11818;DHT22;5966;52.402;5.322;2022-10-31T00:48:47;13.30;99.90
11818;DHT22;5966;52.402;5.322;2022-10-31T00:51:15;13.20;99.90
11818;DHT22;5966;52.402;5.322;2022-10-31T00:53:48;13.20;99.90
11818;DHT22;5966;52.402;5.322;2022-10-31T00:56:16;13.20;99.90
11818;DHT22;5966;52.402;5.322;2022-10-31T00:58:44;13.20;99.90
11818;DHT22;5966;52.402;5.322;2022-10-31T01:04:35;13.20;99.90
11818;DHT22;5966;52.402;5.322;2022-10-31T01:07:04;13.10;99.90
11818;DHT22;5966;52.402;5.322;2022-10-31T01:09:35;13.10;99.90
11818;DHT22;5966;52.402;5.322;2022-10-31T01:12:06;13.10;99.90
11818;DHT22;5966;52.402;5.322;2022-10-31T01:14:35;13.00;99.90
11818;DHT22;5966;52.402;5.322;2022-10-31T01:17:03;13.10;99.90
11818;DHT22;5966;52.402;5.322;2022-10-31T01:19:31;13.00;99.90
11818;DHT22;5966;52.402;5.322;2022-10-31T01:22:00;13.10;99.90
11818;DHT22;5966;52.402;5.322;2022-10-31T01:24:28;13.10;99.90
11818;DHT22;5966;52.402;5.322;2022-10-31T01:26:56;13.00;99.90
11818;DHT22;5966;52.402;5.322;2022-10-31T01:29:24;13.00;99.90
11818;DHT22;5966;52.402;5.322;2022-10-31T01:31:52;13.10;99.90
11818;DHT22;5966;52.402;5.322;2022-10-31T01:34:20;13.00;99.90
11818;DHT22;5966;52.402;5.322;2022-10-31T01:36:48;13.00;99.90
11818;DHT22;5966;52.402;5.322;2022-10-31T01:39:19;13.00;99.90
11818;DHT22;5966;52.402;5.322;2022-10-31T01:41:54;13.00;99.90
11818;DHT22;5966;52.402;5.322;2022-10-31T01:44:58;13.00;99.90
11818;DHT22;5966;52.402;5.322;2022-10-31T01:47:32;13.00;99.90
11818;DHT22;5966;52.402;5.322;2022-10-31T01:50:14;13.00;99.90
11818;DHT22;5966;52.402;5.322;2022-10-31T01:52:45;13.00;99.90
11818;DHT22;5966;52.402;5.322;2022-10-31T01:55:19;13.00;99.90
11818;DHT22;5966;52.402;5.322;2022-10-31T01:57:58;13.00;99.90
11818;DHT22;5966;52.402;5.322;2022-10-31T02:00:29;13.00;99.90
11818;DHT22;5966;52.402;5.322;2022-10-31T02:02:58;12.90;99.90
11818;DHT22;5966;52.402;5.322;2022-10-31T02:05:34;12.90;99.90
11818;DHT22;5966;52.402;5.322;2022-10-31T02:08:08;12.80;99.90
11818;DHT22;5966;52.402;5.322;2022-10-31T02:10:40;12.80;99.90
11818;DHT22;5966;52.402;5.322;2022-10-31T02:13:20;12.80;99.90
11818;DHT22;5966;52.402;5.322;2022-10-31T02:15:51;12.70;99.90
11818;DHT22;5966;52.402;5.322;2022-10-31T02:18:20;12.70;99.90
11818;DHT22;5966;52.402;5.322;2022-10-31T02:20:55;12.60;99.90
11818;DHT22;5966;52.402;5.322;2022-10-31T02:23:58;12.60;99.90
11818;DHT22;5966;52.402;5.322;2022-10-31T02:26:48;12.50;99.90
11818;DHT22;5966;52.402;5.322;2022-10-31T02:30:01;12.40;99.90
11818;DHT22;5966;52.402;5.322;2022-10-31T02:35:36;12.30;99.90
11818;DHT22;5966;52.402;5.322;2022-10-31T02:38:14;12.30;99.90
11818;DHT22;5966;52.402;5.322;2022-10-31T02:40:50;12.20;99.90
11818;DHT22;5966;52.402;5.322;2022-10-31T02:43:25;12.10;99.90
11818;DHT22;5966;52.402;5.322;2022-10-31T02:46:01;12.10;99.90
11818;DHT22;5966;52.402;5.322;2022-10-31T02:48:33;12.10;99.90
11818;DHT22;5966;52.402;5.322;2022-10-31T02:51:04;12.10;99.90
11818;DHT22;5966;52.402;5.322;2022-10-31T02:53:34;12.00;99.90
11818;DHT22;5966;52.402;5.322;2022-10-31T02:56:08;12.10;99.90
11818;DHT22;5966;52.402;5.322;2022-10-31T02:58:42;12.00;99.90
11818;DHT22;5966;52.402;5.322;2022-10-31T03:01:45;12.00;99.90
11818;DHT22;5966;52.402;5.322;2022-10-31T03:07:39;12.00;99.90
11818;DHT22;5966;52.402;5.322;2022-10-31T03:10:17;12.00;99.90
11818;DHT22;5966;52.402;5.322;2022-10-31T03:12:52;12.00;99.90
11818;DHT22;5966;52.402;5.322;2022-10-31T03:15:27;12.00;99.90
11818;DHT22;5966;52.402;5.322;2022-10-31T03:18:20;12.00;99.90
11818;DHT22;5966;52.402;5.322;2022-10-31T03:20:54;12.00;99.90
11818;DHT22;5966;52.402;5.322;2022-10-31T03:23:25;11.90;99.90
11818;DHT22;5966;52.402;5.322;2022-10-31T03:26:06;11.90;99.90
11818;DHT22;5966;52.402;5.322;2022-10-31T03:28:41;11.90;99.90
11818;DHT22;5966;52.402;5.322;2022-10-31T03:31:18;11.90;99.90
11818;DHT22;5966;52.402;5.322;2022-10-31T03:33:48;12.00;99.90
11818;DHT22;5966;52.402;5.322;2022-10-31T03:36:35;12.00;99.90
11818;DHT22;5966;52.402;5.322;2022-10-31T03:42:16;12.00;99.90
11818;DHT22;5966;52.402;5.322;2022-10-31T03:44:49;12.00;99.90
11818;DHT22;5966;52.402;5.322;2022-10-31T03:47:20;12.00;99.90
11818;DHT22;5966;52.402;5.322;2022-10-31T03:49:48;12.00;99.90
11818;DHT22;5966;52.402;5.322;2022-10-31T03:52:21;11.90;99.90
11818;DHT22;5966;52.402;5.322;2022-10-31T03:54:54;11.90;99.90
11818;DHT22;5966;52.402;5.322;2022-10-31T03:57:29;12.00;99.90
11818;DHT22;5966;52.402;5.322;2022-10-31T04:00:03;12.00;99.90
11818;DHT22;5966;52.402;5.322;2022-10-31T04:02:33;11.90;99.90
11818;DHT22;5966;52.402;5.322;2022-10-31T04:05:05;11.90;99.90
11818;DHT22;5966;52.402;5.322;2022-10-31T04:07:35;11.90;99.90
11818;DHT22;5966;52.402;5.322;2022-10-31T04:10:25;11.90;99.90
11818;DHT22;5966;52.402;5.322;2022-10-31T04:13:03;11.90;99.90
11818;DHT22;5966;52.402;5.322;2022-10-31T04:15:37;11.90;99.90
11818;DHT22;5966;52.402;5.322;2022-10-31T04:18:28;11.80;99.90
11818;DHT22;5966;52.402;5.322;2022-10-31T04:21:01;11.80;99.90
11818;DHT22;5966;52.402;5.322;2022-10-31T04:23:44;11.80;99.90
11818;DHT22;5966;52.402;5.322;2022-10-31T04:26:15;11.80;99.90
11818;DHT22;5966;52.402;5.322;2022-10-31T04:28:44;11.80;99.90
11818;DHT22;5966;52.402;5.322;2022-10-31T04:31:14;11.80;99.90
11818;DHT22;5966;52.402;5.322;2022-10-31T04:33:56;11.90;99.90
11818;DHT22;5966;52.402;5.322;2022-10-31T04:36:24;11.80;99.90
11818;DHT22;5966;52.402;5.322;2022-10-31T04:38:52;11.80;99.90
11818;DHT22;5966;52.402;5.322;2022-10-31T04:41:20;11.80;99.90
11818;DHT22;5966;52.402;5.322;2022-10-31T04:43:49;11.80;99.90
11818;DHT22;5966;52.402;5.322;2022-10-31T04:46:17;11.80;99.90
11818;DHT22;5966;52.402;5.322;2022-10-31T04:48:45;11.80;99.90
11818;DHT22;5966;52.402;5.322;2022-10-31T04:51:14;11.70;99.90
11818;DHT22;5966;52.402;5.322;2022-10-31T04:53:44;11.70;99.90
11818;DHT22;5966;52.402;5.322;2022-10-31T04:56:11;11.60;99.90
11818;DHT22;5966;52.402;5.322;2022-10-31T04:58:40;11.60;99.90
11818;DHT22;5966;52.402;5.322;2022-10-31T05:01:15;11.60;99.90
11818;DHT22;5966;52.402;5.322;2022-10-31T05:03:43;11.50;99.90
11818;DHT22;5966;52.402;5.322;2022-10-31T05:06:11;11.40;99.90
11818;DHT22;5966;52.402;5.322;2022-10-31T05:08:38;11.40;99.90
11818;DHT22;5966;52.402;5.322;2022-10-31T05:11:06;11.30;99.90
11818;DHT22;5966;52.402;5.322;2022-10-31T05:13:36;11.30;99.90
11818;DHT22;5966;52.402;5.322;2022-10-31T05:16:21;11.30;99.90
11818;DHT22;5966;52.402;5.322;2022-10-31T05:18:49;11.20;99.90
11818;DHT22;5966;52.402;5.322;2022-10-31T05:21:19;11.20;99.90
11818;DHT22;5966;52.402;5.322;2022-10-31T05:23:47;11.20;99.90
11818;DHT22;5966;52.402;5.322;2022-10-31T05:26:16;11.20;99.90
11818;DHT22;5966;52.402;5.322;2022-10-31T05:28:45;11.20;99.90
11818;DHT22;5966;52.402;5.322;2022-10-31T05:31:13;11.20;99.90
11818;DHT22;5966;52.402;5.322;2022-10-31T05:33:42;11.20;99.90
11818;DHT22;5966;52.402;5.322;2022-10-31T05:36:19;11.20;99.90
11818;DHT22;5966;52.402;5.322;2022-10-31T05:38:47;11.20;99.90
11818;DHT22;5966;52.402;5.322;2022-10-31T05:41:17;11.20;99.90
11818;DHT22;5966;52.402;5.322;2022-10-31T05:43:47;11.20;99.90
11818;DHT22;5966;52.402;5.322;2022-10-31T05:46:16;11.20;99.90
11818;DHT22;5966;52.402;5.322;2022-10-31T05:48:47;11.20;99.90
11818;DHT22;5966;52.402;5.322;2022-10-31T05:51:16;11.20;99.90
11818;DHT22;5966;52.402;5.322;2022-10-31T05:53:43;11.20;99.90
11818;DHT22;5966;52.402;5.322;2022-10-31T05:56:13;11.30;99.90
11818;DHT22;5966;52.402;5.322;2022-10-31T05:58:44;11.30;99.90
11818;DHT22;5966;52.402;5.322;2022-10-31T06:01:12;11.40;99.90
11818;DHT22;5966;52.402;5.322;2022-10-31T06:03:42;11.40;99.90
11818;DHT22;5966;52.402;5.322;2022-10-31T06:06:39;11.50;99.90
11818;DHT22;5966;52.402;5.322;2022-10-31T06:09:07;11.50;99.90
11818;DHT22;5966;52.402;5.322;2022-10-31T06:11:37;11.50;99.90
11818;DHT22;5966;52.402;5.322;2022-10-31T06:14:22;11.40;99.90
11818;DHT22;5966;52.402;5.322;2022-10-31T06:16:50;11.40;99.90
11818;DHT22;5966;52.402;5.322;2022-10-31T06:19:23;11.40;99.90
11818;DHT22;5966;52.402;5.322;2022-10-31T06:22:01;11.40;99.90
11818;DHT22;5966;52.402;5.322;2022-10-31T06:24:29;11.40;99.90
11818;DHT22;5966;52.402;5.322;2022-10-31T06:26:56;11.40;99.90
11818;DHT22;5966;52.402;5.322;2022-10-31T06:29:24;11.50;99.90
11818;DHT22;5966;52.402;5.322;2022-10-31T06:31:53;11.50;99.90
11818;DHT22;5966;52.402;5.322;2022-10-31T06:34:23;11.50;99.90
11818;DHT22;5966;52.402;5.322;2022-10-31T06:36:54;11.50;99.90
11818;DHT22;5966;52.402;5.322;2022-10-31T06:39:25;11.50;99.90
11818;DHT22;5966;52.402;5.322;2022-10-31T06:41:54;11.50;99.90
11818;DHT22;5966;52.402;5.322;2022-10-31T06:44:33;11.50;99.90
11818;DHT22;5966;52.402;5.322;2022-10-31T06:47:01;11.50;99.90
11818;DHT22;5966;52.402;5.322;2022-10-31T06:49:29;11.50;99.90
11818;DHT22;5966;52.402;5.322;2022-10-31T06:51:58;11.60;99.90
11818;DHT22;5966;52.402;5.322;2022-10-31T06:54:27;11.60;99.90
11818;DHT22;5966;52.402;5.322;2022-10-31T06:56:55;11.50;99.90
11818;DHT22;5966;52.402;5.322;2022-10-31T06:59:23;11.50;99.90
11818;DHT22;5966;52.402;5.322;2022-10-31T07:01:51;11.60;99.90
11818;DHT22;5966;52.402;5.322;2022-10-31T07:04:19;11.60;99.90
11818;DHT22;5966;52.402;5.322;2022-10-31T07:06:50;11.60;99.90
11818;DHT22;5966;52.402;5.322;2022-10-31T07:09:18;11.60;99.90
11818;DHT22;5966;52.402;5.322;2022-10-31T07:11:47;11.60;99.90
11818;DHT22;5966;52.402;5.322;2022-10-31T07:14:20;11.60;99.90
11818;DHT22;5966;52.402;5.322;2022-10-31T07:16:51;11.60;99.90
11818;DHT22;5966;52.402;5.322;2022-10-31T07:19:19;11.60;99.90
11818;DHT22;5966;52.402;5.322;2022-10-31T07:21:47;11.60;99.90
11818;DHT22;5966;52.402;5.322;2022-10-31T07:24:15;11.60;99.90
11818;DHT22;5966;52.402;5.322;2022-10-31T07:26:49;11.60;99.90
11818;DHT22;5966;52.402;5.322;2022-10-31T07:29:19;11.70;99.90
11818;DHT22;5966;52.402;5.322;2022-10-31T07:31:47;11.70;99.90
11818;DHT22;5966;52.402;5.322;2022-10-31T07:34:48;11.70;99.90
11818;DHT22;5966;52.402;5.322;2022-10-31T07:37:16;11.70;99.90
11818;DHT22;5966;52.402;5.322;2022-10-31T07:39:45;11.70;99.90
11818;DHT22;5966;52.402;5.322;2022-10-31T07:42:58;11.80;99.90
11818;DHT22;5966;52.402;5.322;2022-10-31T07:45:32;11.80;99.90
11818;DHT22;5966;52.402;5.322;2022-10-31T07:48:00;11.90;99.90
11818;DHT22;5966;52.402;5.322;2022-10-31T07:50:35;11.90;99.90
11818;DHT22;5966;52.402;5.322;2022-10-31T07:53:12;12.00;99.90
11818;DHT22;5966;52.402;5.322;2022-10-31T07:55:41;12.00;99.90
11818;DHT22;5966;52.402;5.322;2022-10-31T07:58:11;12.00;99.90
11818;DHT22;5966;52.402;5.322;2022-10-31T08:00:41;12.10;99.90
11818;DHT22;5966;52.402;5.322;2022-10-31T08:03:11;12.10;99.90
11818;DHT22;5966;52.402;5.322;2022-10-31T08:05:43;12.10;99.90
11818;DHT22;5966;52.402;5.322;2022-10-31T08:08:33;12.10;99.90
11818;DHT22;5966;52.402;5.322;2022-10-31T08:11:04;12.10;99.90
11818;DHT22;5966;52.402;5.322;2022-10-31T08:13:47;12.10;99.90
11818;DHT22;5966;52.402;5.322;2022-10-31T08:16:30;12.20;99.90
11818;DHT22;5966;52.402;5.322;2022-10-31T08:19:02;12.20;99.90
11818;DHT22;5966;52.402;5.322;2022-10-31T08:21:37;12.20;99.90
11818;DHT22;5966;52.402;5.322;2022-10-31T08:24:06;12.20;99.90
11818;DHT22;5966;52.402;5.322;2022-10-31T08:26:33;12.30;99.90
11818;DHT22;5966;52.402;5.322;2022-10-31T08:29:04;12.30;99.90
11818;DHT22;5966;52.402;5.322;2022-10-31T08:31:36;12.30;99.90
11818;DHT22;5966;52.402;5.322;2022-10-31T08:34:08;12.40;99.90
11818;DHT22;5966;52.402;5.322;2022-10-31T08:36:41;12.40;99.90
11818;DHT22;5966;52.402;5.322;2022-10-31T08:39:13;12.40;99.90
11818;DHT22;5966;52.402;5.322;2022-10-31T08:41:42;12.40;99.90
11818;DHT22;5966;52.402;5.322;2022-10-31T08:44:11;12.40;99.90
11818;DHT22;5966;52.402;5.322;2022-10-31T08:46:39;12.40;99.90
11818;DHT22;5966;52.402;5.322;2022-10-31T08:49:07;12.40;99.90
11818;DHT22;5966;52.402;5.322;2022-10-31T08:51:37;12.40;99.90
11818;DHT22;5966;52.402;5.322;2022-10-31T08:54:05;12.50;99.90
11818;DHT22;5966;52.402;5.322;2022-10-31T08:56:47;12.50;99.90
11818;DHT22;5966;52.402;5.322;2022-10-31T08:59:30;12.50;99.90
11818;DHT22;5966;52.402;5.322;2022-10-31T09:01:58;12.40;99.90
11818;DHT22;5966;52.402;5.322;2022-10-31T09:04:26;12.40;99.90
11818;DHT22;5966;52.402;5.322;2022-10-31T09:06:54;12.50;99.90
11818;DHT22;5966;52.402;5.322;2022-10-31T09:09:44;12.50;99.90
11818;DHT22;5966;52.402;5.322;2022-10-31T09:12:12;12.50;99.90
11818;DHT22;5966;52.402;5.322;2022-10-31T09:15:14;12.60;99.90
11818;DHT22;5966;52.402;5.322;2022-10-31T09:17:50;12.60;99.90
11818;DHT22;5966;52.402;5.322;2022-10-31T09:20:32;12.70;99.90
11818;DHT22;5966;52.402;5.322;2022-10-31T09:23:09;12.70;99.90
11818;DHT22;5966;52.402;5.322;2022-10-31T09:25:38;12.80;99.90
11818;DHT22;5966;52.402;5.322;2022-10-31T09:28:08;12.90;99.90
11818;DHT22;5966;52.402;5.322;2022-10-31T09:30:39;13.00;99.90
11818;DHT22;5966;52.402;5.322;2022-10-31T09:33:27;13.00;99.90
11818;DHT22;5966;52.402;5.322;2022-10-31T09:35:58;13.10;99.90
11818;DHT22;5966;52.402;5.322;2022-10-31T09:38:26;13.20;99.90
11818;DHT22;5966;52.402;5.322;2022-10-31T09:41:05;13.30;99.90
11818;DHT22;5966;52.402;5.322;2022-10-31T09:44:02;13.40;99.90
11818;DHT22;5966;52.402;5.322;2022-10-31T09:46:47;13.40;99.90
11818;DHT22;5966;52.402;5.322;2022-10-31T09:49:47;13.50;99.90
11818;DHT22;5966;52.402;5.322;2022-10-31T09:52:27;13.50;99.90
11818;DHT22;5966;52.402;5.322;2022-10-31T09:55:09;13.50;99.90
11818;DHT22;5966;52.402;5.322;2022-10-31T09:57:44;13.60;99.90
11818;DHT22;5966;52.402;5.322;2022-10-31T10:00:21;13.60;99.90
11818;DHT22;5966;52.402;5.322;2022-10-31T10:03:04;13.70;99.90
11818;DHT22;5966;52.402;5.322;2022-10-31T10:05:43;13.80;99.90
11818;DHT22;5966;52.402;5.322;2022-10-31T10:08:23;13.80;99.90
11818;DHT22;5966;52.402;5.322;2022-10-31T10:11:30;13.90;99.90
11818;DHT22;5966;52.402;5.322;2022-10-31T10:14:20;14.00;99.90
11818;DHT22;5966;52.402;5.322;2022-10-31T10:17:07;14.10;99.90
11818;DHT22;5966;52.402;5.322;2022-10-31T10:20:14;14.10;99.90
11818;DHT22;5966;52.402;5.322;2022-10-31T10:22:56;14.20;99.90
11818;DHT22;5966;52.402;5.322;2022-10-31T10:25:38;14.30;99.90
11818;DHT22;5966;52.402;5.322;2022-10-31T10:28:19;14.30;99.90
11818;DHT22;5966;52.402;5.322;2022-10-31T10:30:54;14.40;99.90
11818;DHT22;5966;52.402;5.322;2022-10-31T10:33:30;14.50;99.90
11818;DHT22;5966;52.402;5.322;2022-10-31T10:36:12;14.50;99.90
11818;DHT22;5966;52.402;5.322;2022-10-31T10:38:50;14.60;99.90
11818;DHT22;5966;52.402;5.322;2022-10-31T10:41:30;14.60;99.90
11818;DHT22;5966;52.402;5.322;2022-10-31T10:44:31;14.60;99.90
11818;DHT22;5966;52.402;5.322;2022-10-31T10:47:25;14.70;99.90
11818;DHT22;5966;52.402;5.322;2022-10-31T10:50:13;14.70;99.90
11818;DHT22;5966;52.402;5.322;2022-10-31T10:52:48;14.70;99.90
11818;DHT22;5966;52.402;5.322;2022-10-31T10:55:28;14.80;99.90
11818;DHT22;5966;52.402;5.322;2022-10-31T10:58:01;14.80;99.90
11818;DHT22;5966;52.402;5.322;2022-10-31T11:00:32;14.80;99.90
11818;DHT22;5966;52.402;5.322;2022-10-31T11:03:02;14.90;99.90
11818;DHT22;5966;52.402;5.322;2022-10-31T11:05:36;14.90;99.90
11818;DHT22;5966;52.402;5.322;2022-10-31T11:08:07;15.00;99.90
11818;DHT22;5966;52.402;5.322;2022-10-31T11:10:37;15.00;99.90
11818;DHT22;5966;52.402;5.322;2022-10-31T11:13:20;15.10;99.90
11818;DHT22;5966;52.402;5.322;2022-10-31T11:15:53;15.20;99.90
11818;DHT22;5966;52.402;5.322;2022-10-31T11:18:26;15.20;99.90
11818;DHT22;5966;52.402;5.322;2022-10-31T11:21:00;15.30;99.90
11818;DHT22;5966;52.402;5.322;2022-10-31T11:23:31;15.40;99.90
11818;DHT22;5966;52.402;5.322;2022-10-31T11:26:00;15.40;99.90
11818;DHT22;5966;52.402;5.322;2022-10-31T11:28:30;15.40;99.90
11818;DHT22;5966;52.402;5.322;2022-10-31T11:31:00;15.50;99.90
11818;DHT22;5966;52.402;5.322;2022-10-31T11:33:32;15.50;99.90
11818;DHT22;5966;52.402;5.322;2022-10-31T11:36:01;15.60;99.90
11818;DHT22;5966;52.402;5.322;2022-10-31T11:38:34;15.60;99.90
11818;DHT22;5966;52.402;5.322;2022-10-31T11:41:09;15.70;99.90
11818;DHT22;5966;52.402;5.322;2022-10-31T11:43:39;15.70;99.90
11818;DHT22;5966;52.402;5.322;2022-10-31T11:46:17;15.80;99.90
11818;DHT22;5966;52.402;5.322;2022-10-31T11:48:48;15.70;99.90
11818;DHT22;5966;52.402;5.322;2022-10-31T11:51:21;15.70;99.90
11818;DHT22;5966;52.402;5.322;2022-10-31T11:53:53;15.70;99.90
11818;DHT22;5966;52.402;5.322;2022-10-31T11:56:36;15.70;99.90
11818;DHT22;5966;52.402;5.322;2022-10-31T11:59:12;15.70;99.90
11818;DHT22;5966;52.402;5.322;2022-10-31T12:01:47;15.70;99.90
11818;DHT22;5966;52.402;5.322;2022-10-31T12:04:18;15.80;99.90
11818;DHT22;5966;52.402;5.322;2022-10-31T12:06:54;15.80;99.90
11818;DHT22;5966;52.402;5.322;2022-10-31T12:09:25;15.90;99.90
11818;DHT22;5966;52.402;5.322;2022-10-31T12:12:23;15.90;99.90
11818;DHT22;5966;52.402;5.322;2022-10-31T12:15:09;15.90;99.90
11818;DHT22;5966;52.402;5.322;2022-10-31T12:17:56;15.90;99.90
11818;DHT22;5966;52.402;5.322;2022-10-31T12:20:37;15.90;99.90
11818;DHT22;5966;52.402;5.322;2022-10-31T12:23:15;15.90;99.90
11818;DHT22;5966;52.402;5.322;2022-10-31T12:25:55;15.90;99.90
11818;DHT22;5966;52.402;5.322;2022-10-31T12:31:59;15.80;99.90
11818;DHT22;5966;52.402;5.322;2022-10-31T12:34:57;15.80;99.90
11818;DHT22;5966;52.402;5.322;2022-10-31T12:37:40;15.80;99.90
11818;DHT22;5966;52.402;5.322;2022-10-31T12:40:33;15.80;99.90
11818;DHT22;5966;52.402;5.322;2022-10-31T12:43:26;15.80;99.90
11818;DHT22;5966;52.402;5.322;2022-10-31T12:45:58;15.90;99.90
11818;DHT22;5966;52.402;5.322;2022-10-31T12:48:54;15.90;99.90
11818;DHT22;5966;52.402;5.322;2022-10-31T12:51:36;16.00;99.90
11818;DHT22;5966;52.402;5.322;2022-10-31T12:54:19;16.00;99.90
11818;DHT22;5966;52.402;5.322;2022-10-31T12:56:56;16.00;99.90
11818;DHT22;5966;52.402;5.322;2022-10-31T12:59:34;15.90;99.90
11818;DHT22;5966;52.402;5.322;2022-10-31T13:02:13;16.00;99.90
11818;DHT22;5966;52.402;5.322;2022-10-31T13:04:48;16.00;99.90
11818;DHT22;5966;52.402;5.322;2022-10-31T13:07:22;16.00;99.90
11818;DHT22;5966;52.402;5.322;2022-10-31T13:10:13;16.10;99.90
11818;DHT22;5966;52.402;5.322;2022-10-31T13:12:43;16.10;99.90
11818;DHT22;5966;52.402;5.322;2022-10-31T13:15:25;16.10;99.90
11818;DHT22;5966;52.402;5.322;2022-10-31T13:17:57;16.10;99.90
11818;DHT22;5966;52.402;5.322;2022-10-31T13:20:30;16.20;99.90
11818;DHT22;5966;52.402;5.322;2022-10-31T13:23:05;16.20;99.90
11818;DHT22;5966;52.402;5.322;2022-10-31T13:26:03;16.20;99.90
11818;DHT22;5966;52.402;5.322;2022-10-31T13:28:44;16.20;99.90
11818;DHT22;5966;52.402;5.322;2022-10-31T13:31:20;16.20;99.90
11818;DHT22;5966;52.402;5.322;2022-10-31T13:33:52;16.20;99.90
11818;DHT22;5966;52.402;5.322;2022-10-31T13:36:31;16.20;99.90
11818;DHT22;5966;52.402;5.322;2022-10-31T13:39:14;16.20;99.90
11818;DHT22;5966;52.402;5.322;2022-10-31T13:41:49;16.20;99.90
11818;DHT22;5966;52.402;5.322;2022-10-31T13:44:23;16.20;99.90
11818;DHT22;5966;52.402;5.322;2022-10-31T13:46:57;16.10;99.90
11818;DHT22;5966;52.402;5.322;2022-10-31T13:49:44;16.10;99.90
11818;DHT22;5966;52.402;5.322;2022-10-31T13:52:17;16.10;99.90
11818;DHT22;5966;52.402;5.322;2022-10-31T13:54:56;16.10;99.90
11818;DHT22;5966;52.402;5.322;2022-10-31T13:57:31;16.10;99.90
11818;DHT22;5966;52.402;5.322;2022-10-31T14:00:12;16.10;99.90
11818;DHT22;5966;52.402;5.322;2022-10-31T14:02:55;16.00;99.90
11818;DHT22;5966;52.402;5.322;2022-10-31T14:05:26;16.00;99.90
11818;DHT22;5966;52.402;5.322;2022-10-31T14:08:01;16.00;99.90
11818;DHT22;5966;52.402;5.322;2022-10-31T14:10:36;16.00;99.90
11818;DHT22;5966;52.402;5.322;2022-10-31T14:13:07;15.90;99.90
11818;DHT22;5966;52.402;5.322;2022-10-31T14:15:37;15.90;99.90
11818;DHT22;5966;52.402;5.322;2022-10-31T14:18:28;15.90;99.90
11818;DHT22;5966;52.402;5.322;2022-10-31T14:21:12;15.90;99.90
11818;DHT22;5966;52.402;5.322;2022-10-31T14:23:44;15.80;99.90
11818;DHT22;5966;52.402;5.322;2022-10-31T14:26:33;15.80;99.90
11818;DHT22;5966;52.402;5.322;2022-10-31T14:29:23;15.80;99.90
11818;DHT22;5966;52.402;5.322;2022-10-31T14:31:58;15.70;99.90
11818;DHT22;5966;52.402;5.322;2022-10-31T14:34:38;15.70;99.90
11818;DHT22;5966;52.402;5.322;2022-10-31T14:40:27;15.70;99.90
11818;DHT22;5966;52.402;5.322;2022-10-31T14:43:18;15.70;99.90
11818;DHT22;5966;52.402;5.322;2022-10-31T14:45:53;15.60;99.90
11818;DHT22;5966;52.402;5.322;2022-10-31T14:48:37;15.60;99.90
11818;DHT22;5966;52.402;5.322;2022-10-31T14:51:15;15.60;99.90
11818;DHT22;5966;52.402;5.322;2022-10-31T14:53:49;15.60;99.90
11818;DHT22;5966;52.402;5.322;2022-10-31T14:56:21;15.60;99.90
11818;DHT22;5966;52.402;5.322;2022-10-31T14:58:50;15.60;99.90
11818;DHT22;5966;52.402;5.322;2022-10-31T15:01:24;15.60;99.90
11818;DHT22;5966;52.402;5.322;2022-10-31T15:03:54;15.60;99.90
11818;DHT22;5966;52.402;5.322;2022-10-31T15:06:52;15.60;99.90
11818;DHT22;5966;52.402;5.322;2022-10-31T15:09:33;15.60;99.90
11818;DHT22;5966;52.402;5.322;2022-10-31T15:12:31;15.50;99.90
11818;DHT22;5966;52.402;5.322;2022-10-31T15:15:11;15.50;99.90
11818;DHT22;5966;52.402;5.322;2022-10-31T15:17:44;15.50;99.90
11818;DHT22;5966;52.402;5.322;2022-10-31T15:20:19;15.50;99.90
11818;DHT22;5966;52.402;5.322;2022-10-31T15:22:59;15.50;99.90
11818;DHT22;5966;52.402;5.322;2022-10-31T15:25:34;15.50;99.90
11818;DHT22;5966;52.402;5.322;2022-10-31T15:28:13;15.50;99.90
11818;DHT22;5966;52.402;5.322;2022-10-31T15:30:50;15.50;99.90
11818;DHT22;5966;52.402;5.322;2022-10-31T15:33:28;15.50;99.90
11818;DHT22;5966;52.402;5.322;2022-10-31T15:36:17;15.40;99.90
11818;DHT22;5966;52.402;5.322;2022-10-31T15:38:58;15.40;99.90
11818;DHT22;5966;52.402;5.322;2022-10-31T15:41:32;15.40;99.90
11818;DHT22;5966;52.402;5.322;2022-10-31T15:44:10;15.40;99.90
11818;DHT22;5966;52.402;5.322;2022-10-31T15:46:39;15.40;99.90
11818;DHT22;5966;52.402;5.322;2022-10-31T15:49:24;15.40;99.90
11818;DHT22;5966;52.402;5.322;2022-10-31T15:51:55;15.40;99.90
11818;DHT22;5966;52.402;5.322;2022-10-31T15:54:29;15.40;99.90
11818;DHT22;5966;52.402;5.322;2022-10-31T15:57:00;15.40;99.90
11818;DHT22;5966;52.402;5.322;2022-10-31T15:59:33;15.40;99.90
11818;DHT22;5966;52.402;5.322;2022-10-31T16:02:08;15.30;99.90
11818;DHT22;5966;52.402;5.322;2022-10-31T16:05:14;15.30;99.90
11818;DHT22;5966;52.402;5.322;2022-10-31T16:07:48;15.30;99.90
11818;DHT22;5966;52.402;5.322;2022-10-31T16:10:38;15.30;99.90
11818;DHT22;5966;52.402;5.322;2022-10-31T16:13:09;15.30;99.90
11818;DHT22;5966;52.402;5.322;2022-10-31T16:15:51;15.30;99.90
11818;DHT22;5966;52.402;5.322;2022-10-31T16:18:49;15.30;99.90
11818;DHT22;5966;52.402;5.322;2022-10-31T16:21:28;15.30;99.90
11818;DHT22;5966;52.402;5.322;2022-10-31T16:24:15;15.30;99.90
11818;DHT22;5966;52.402;5.322;2022-10-31T16:26:53;15.20;99.90
11818;DHT22;5966;52.402;5.322;2022-10-31T16:29:32;15.30;99.90
11818;DHT22;5966;52.402;5.322;2022-10-31T16:32:01;15.30;99.90
11818;DHT22;5966;52.402;5.322;2022-10-31T16:34:30;15.30;99.90
11818;DHT22;5966;52.402;5.322;2022-10-31T16:37:01;15.30;99.90
11818;DHT22;5966;52.402;5.322;2022-10-31T16:39:31;15.30;99.90
11818;DHT22;5966;52.402;5.322;2022-10-31T16:42:04;15.30;99.90
11818;DHT22;5966;52.402;5.322;2022-10-31T16:44:38;15.30;99.90
11818;DHT22;5966;52.402;5.322;2022-10-31T16:47:27;15.30;99.90
11818;DHT22;5966;52.402;5.322;2022-10-31T16:50:16;15.30;99.90
11818;DHT22;5966;52.402;5.322;2022-10-31T16:52:58;15.30;99.90
11818;DHT22;5966;52.402;5.322;2022-10-31T16:55:54;15.30;99.90
11818;DHT22;5966;52.402;5.322;2022-10-31T16:58:35;15.20;99.90
11818;DHT22;5966;52.402;5.322;2022-10-31T17:01:05;15.20;99.90